sensor_id;sensor_type;location;lat;lon;timestamp;temperature;humidity
66257;DHT22;53049;43.446;3.698;2023-12-14T00:02:00;11.00;99.90
66257;DHT22;53049;43.446;3.698;2023-12-14T00:04:26;10.90;99.90
66257;DHT22;53049;43.446;3.698;2023-12-14T00:06:51;11.00;99.90
66257;DHT22;53049;43.446;3.698;2023-12-14T00:09:17;11.00;99.90
66257;DHT22;53049;43.446;3.698;2023-12-14T00:11:43;11.00;99.90
66257;DHT22;53049;43.446;3.698;2023-12-14T00:14:08;11.00;99.90
66257;DHT22;53049;43.446;3.698;2023-12-14T00:16:34;11.00;99.90
66257;DHT22;53049;43.446;3.698;2023-12-14T00:19:00;11.00;99.90
66257;DHT22;53049;43.446;3.698;2023-12-14T00:21:25;11.00;99.90
66257;DHT22;53049;43.446;3.698;2023-12-14T00:23:51;11.00;99.90
66257;DHT22;53049;43.446;3.698;2023-12-14T00:26:17;11.10;99.90
66257;DHT22;53049;43.446;3.698;2023-12-14T00:28:43;11.10;99.90
66257;DHT22;53049;43.446;3.698;2023-12-14T00:31:08;11.10;99.90
66257;DHT22;53049;43.446;3.698;2023-12-14T00:33:34;11.00;99.90
66257;DHT22;53049;43.446;3.698;2023-12-14T00:36:00;11.00;99.90
66257;DHT22;53049;43.446;3.698;2023-12-14T00:38:25;11.00;99.90
66257;DHT22;53049;43.446;3.698;2023-12-14T00:40:51;11.00;99.90
66257;DHT22;53049;43.446;3.698;2023-12-14T00:43:17;11.00;99.90
66257;DHT22;53049;43.446;3.698;2023-12-14T00:45:42;10.90;99.90
66257;DHT22;53049;43.446;3.698;2023-12-14T00:48:08;10.90;99.90
66257;DHT22;53049;43.446;3.698;2023-12-14T00:50:34;10.80;99.90
66257;DHT22;53049;43.446;3.698;2023-12-14T00:53:00;10.70;99.90
66257;DHT22;53049;43.446;3.698;2023-12-14T00:55:25;10.70;99.90
66257;DHT22;53049;43.446;3.698;2023-12-14T00:57:51;10.70;99.90
66257;DHT22;53049;43.446;3.698;2023-12-14T01:00:17;10.60;99.90
66257;DHT22;53049;43.446;3.698;2023-12-14T01:02:43;10.60;99.90
66257;DHT22;53049;43.446;3.698;2023-12-14T01:05:09;10.50;99.90
66257;DHT22;53049;43.446;3.698;2023-12-14T01:07:35;10.50;99.90
66257;DHT22;53049;43.446;3.698;2023-12-14T01:10:01;10.50;99.90
66257;DHT22;53049;43.446;3.698;2023-12-14T01:12:27;10.50;99.90
66257;DHT22;53049;43.446;3.698;2023-12-14T01:14:52;10.50;99.90
66257;DHT22;53049;43.446;3.698;2023-12-14T01:17:18;10.60;99.90
66257;DHT22;53049;43.446;3.698;2023-12-14T01:19:44;10.60;99.90
66257;DHT22;53049;43.446;3.698;2023-12-14T01:22:10;10.50;99.90
66257;DHT22;53049;43.446;3.698;2023-12-14T01:24:35;10.50;99.90
66257;DHT22;53049;43.446;3.698;2023-12-14T01:27:01;10.40;99.90
66257;DHT22;53049;43.446;3.698;2023-12-14T01:29:27;10.40;99.90
66257;DHT22;53049;43.446;3.698;2023-12-14T01:31:52;10.40;99.90
66257;DHT22;53049;43.446;3.698;2023-12-14T01:34:18;10.40;99.90
66257;DHT22;53049;43.446;3.698;2023-12-14T01:36:44;10.40;99.90
66257;DHT22;53049;43.446;3.698;2023-12-14T01:39:09;10.40;99.90
66257;DHT22;53049;43.446;3.698;2023-12-14T01:41:35;10.40;99.90
66257;DHT22;53049;43.446;3.698;2023-12-14T01:44:01;10.40;99.90
66257;DHT22;53049;43.446;3.698;2023-12-14T01:46:26;10.40;99.90
66257;DHT22;53049;43.446;3.698;2023-12-14T01:48:52;10.40;99.90
66257;DHT22;53049;43.446;3.698;2023-12-14T01:51:18;10.40;99.90
66257;DHT22;53049;43.446;3.698;2023-12-14T01:53:44;10.30;99.90
66257;DHT22;53049;43.446;3.698;2023-12-14T01:56:10;10.30;99.90
66257;DHT22;53049;43.446;3.698;2023-12-14T01:58:36;10.30;99.90
66257;DHT22;53049;43.446;3.698;2023-12-14T02:01:14;10.30;99.90
66257;DHT22;53049;43.446;3.698;2023-12-14T02:03:45;10.30;99.90
66257;DHT22;53049;43.446;3.698;2023-12-14T02:06:11;10.30;99.90
66257;DHT22;53049;43.446;3.698;2023-12-14T02:08:37;10.30;99.90
66257;DHT22;53049;43.446;3.698;2023-12-14T02:11:03;10.30;99.90
66257;DHT22;53049;43.446;3.698;2023-12-14T02:13:28;10.20;99.90
66257;DHT22;53049;43.446;3.698;2023-12-14T02:15:54;10.20;99.90
66257;DHT22;53049;43.446;3.698;2023-12-14T02:18:20;10.20;99.90
66257;DHT22;53049;43.446;3.698;2023-12-14T02:20:46;10.20;99.90
66257;DHT22;53049;43.446;3.698;2023-12-14T02:23:11;10.20;99.90
66257;DHT22;53049;43.446;3.698;2023-12-14T02:25:37;10.20;99.90
66257;DHT22;53049;43.446;3.698;2023-12-14T02:28:03;10.20;99.90
66257;DHT22;53049;43.446;3.698;2023-12-14T02:30:28;10.20;99.90
66257;DHT22;53049;43.446;3.698;2023-12-14T02:32:54;10.20;99.90
66257;DHT22;53049;43.446;3.698;2023-12-14T02:35:20;10.20;99.90
66257;DHT22;53049;43.446;3.698;2023-12-14T02:37:45;10.20;99.90
66257;DHT22;53049;43.446;3.698;2023-12-14T02:40:11;10.20;99.90
66257;DHT22;53049;43.446;3.698;2023-12-14T02:42:37;10.20;99.90
66257;DHT22;53049;43.446;3.698;2023-12-14T02:45:03;10.20;99.90
66257;DHT22;53049;43.446;3.698;2023-12-14T02:47:29;10.20;99.90
66257;DHT22;53049;43.446;3.698;2023-12-14T02:49:55;10.20;99.90
66257;DHT22;53049;43.446;3.698;2023-12-14T02:52:21;10.20;99.90
66257;DHT22;53049;43.446;3.698;2023-12-14T02:54:48;10.20;99.90
66257;DHT22;53049;43.446;3.698;2023-12-14T02:57:13;10.10;99.90
66257;DHT22;53049;43.446;3.698;2023-12-14T02:59:39;10.20;99.90
66257;DHT22;53049;43.446;3.698;2023-12-14T03:02:05;10.10;99.90
66257;DHT22;53049;43.446;3.698;2023-12-14T03:04:31;10.20;99.90
66257;DHT22;53049;43.446;3.698;2023-12-14T03:06:57;10.10;99.90
66257;DHT22;53049;43.446;3.698;2023-12-14T03:09:23;10.10;99.90
66257;DHT22;53049;43.446;3.698;2023-12-14T03:11:49;10.10;99.90
66257;DHT22;53049;43.446;3.698;2023-12-14T03:14:14;10.00;99.90
66257;DHT22;53049;43.446;3.698;2023-12-14T03:16:40;10.00;99.90
66257;DHT22;53049;43.446;3.698;2023-12-14T03:19:06;10.00;99.90
66257;DHT22;53049;43.446;3.698;2023-12-14T03:21:31;9.90;99.90
66257;DHT22;53049;43.446;3.698;2023-12-14T03:23:57;9.90;99.90
66257;DHT22;53049;43.446;3.698;2023-12-14T03:26:24;9.90;99.90
66257;DHT22;53049;43.446;3.698;2023-12-14T03:28:50;9.90;99.90
66257;DHT22;53049;43.446;3.698;2023-12-14T03:31:15;9.90;99.90
66257;DHT22;53049;43.446;3.698;2023-12-14T03:33:42;9.90;99.90
66257;DHT22;53049;43.446;3.698;2023-12-14T03:36:08;9.90;99.90
66257;DHT22;53049;43.446;3.698;2023-12-14T03:38:33;9.90;99.90
66257;DHT22;53049;43.446;3.698;2023-12-14T03:40:59;9.80;99.90
66257;DHT22;53049;43.446;3.698;2023-12-14T03:43:26;9.80;99.90
66257;DHT22;53049;43.446;3.698;2023-12-14T03:45:52;9.80;99.90
66257;DHT22;53049;43.446;3.698;2023-12-14T03:48:18;9.80;99.90
66257;DHT22;53049;43.446;3.698;2023-12-14T03:50:43;9.80;99.90
66257;DHT22;53049;43.446;3.698;2023-12-14T03:53:09;9.80;99.90
66257;DHT22;53049;43.446;3.698;2023-12-14T03:55:35;9.80;99.90
66257;DHT22;53049;43.446;3.698;2023-12-14T03:58:00;9.80;99.90
66257;DHT22;53049;43.446;3.698;2023-12-14T04:00:26;9.80;99.90
66257;DHT22;53049;43.446;3.698;2023-12-14T04:02:52;9.80;99.90
66257;DHT22;53049;43.446;3.698;2023-12-14T04:05:17;9.80;99.90
66257;DHT22;53049;43.446;3.698;2023-12-14T04:07:43;9.80;99.90
66257;DHT22;53049;43.446;3.698;2023-12-14T04:10:10;9.80;99.90
66257;DHT22;53049;43.446;3.698;2023-12-14T04:12:36;9.80;99.90
66257;DHT22;53049;43.446;3.698;2023-12-14T04:15:03;9.80;99.90
66257;DHT22;53049;43.446;3.698;2023-12-14T04:17:31;9.80;99.90
66257;DHT22;53049;43.446;3.698;2023-12-14T04:19:57;9.80;99.90
66257;DHT22;53049;43.446;3.698;2023-12-14T04:22:23;9.80;99.90
66257;DHT22;53049;43.446;3.698;2023-12-14T04:24:49;9.80;99.90
66257;DHT22;53049;43.446;3.698;2023-12-14T04:27:15;9.80;99.90
66257;DHT22;53049;43.446;3.698;2023-12-14T04:29:41;9.90;99.90
66257;DHT22;53049;43.446;3.698;2023-12-14T04:32:07;9.80;99.90
66257;DHT22;53049;43.446;3.698;2023-12-14T04:34:32;9.80;99.90
66257;DHT22;53049;43.446;3.698;2023-12-14T04:36:58;9.80;99.90
66257;DHT22;53049;43.446;3.698;2023-12-14T04:39:24;9.80;99.90
66257;DHT22;53049;43.446;3.698;2023-12-14T04:41:51;9.80;99.90
66257;DHT22;53049;43.446;3.698;2023-12-14T04:44:20;9.80;99.90
66257;DHT22;53049;43.446;3.698;2023-12-14T04:46:47;9.70;99.90
66257;DHT22;53049;43.446;3.698;2023-12-14T04:49:13;9.80;99.90
66257;DHT22;53049;43.446;3.698;2023-12-14T04:51:39;9.70;99.90
66257;DHT22;53049;43.446;3.698;2023-12-14T04:54:04;9.80;99.90
66257;DHT22;53049;43.446;3.698;2023-12-14T04:56:30;9.80;99.90
66257;DHT22;53049;43.446;3.698;2023-12-14T04:58:56;9.70;99.90
66257;DHT22;53049;43.446;3.698;2023-12-14T05:01:22;9.70;99.90
66257;DHT22;53049;43.446;3.698;2023-12-14T05:03:47;9.80;99.90
66257;DHT22;53049;43.446;3.698;2023-12-14T05:06:13;9.80;99.90
66257;DHT22;53049;43.446;3.698;2023-12-14T05:08:39;9.70;99.90
66257;DHT22;53049;43.446;3.698;2023-12-14T05:11:05;9.70;99.90
66257;DHT22;53049;43.446;3.698;2023-12-14T05:13:30;9.70;99.90
66257;DHT22;53049;43.446;3.698;2023-12-14T05:15:56;9.70;99.90
66257;DHT22;53049;43.446;3.698;2023-12-14T05:18:24;9.70;99.90
66257;DHT22;53049;43.446;3.698;2023-12-14T05:20:51;9.70;99.90
66257;DHT22;53049;43.446;3.698;2023-12-14T05:23:16;9.80;99.90
66257;DHT22;53049;43.446;3.698;2023-12-14T05:25:42;9.80;99.90
66257;DHT22;53049;43.446;3.698;2023-12-14T05:28:09;9.80;99.90
66257;DHT22;53049;43.446;3.698;2023-12-14T05:30:34;9.90;99.90
66257;DHT22;53049;43.446;3.698;2023-12-14T05:33:00;9.90;99.90
66257;DHT22;53049;43.446;3.698;2023-12-14T05:35:27;9.90;99.90
66257;DHT22;53049;43.446;3.698;2023-12-14T05:37:52;9.90;99.90
66257;DHT22;53049;43.446;3.698;2023-12-14T05:40:18;9.80;99.90
66257;DHT22;53049;43.446;3.698;2023-12-14T05:42:44;9.80;99.90
66257;DHT22;53049;43.446;3.698;2023-12-14T05:45:09;9.80;99.90
66257;DHT22;53049;43.446;3.698;2023-12-14T05:47:35;9.80;99.90
66257;DHT22;53049;43.446;3.698;2023-12-14T05:50:01;9.90;99.90
66257;DHT22;53049;43.446;3.698;2023-12-14T05:52:27;9.80;99.90
66257;DHT22;53049;43.446;3.698;2023-12-14T05:54:53;9.90;99.90
66257;DHT22;53049;43.446;3.698;2023-12-14T05:57:19;9.80;99.90
66257;DHT22;53049;43.446;3.698;2023-12-14T05:59:44;9.80;99.90
66257;DHT22;53049;43.446;3.698;2023-12-14T06:02:10;9.80;99.90
66257;DHT22;53049;43.446;3.698;2023-12-14T06:04:36;9.80;99.90
66257;DHT22;53049;43.446;3.698;2023-12-14T06:07:02;9.80;99.90
66257;DHT22;53049;43.446;3.698;2023-12-14T06:09:28;9.90;99.90
66257;DHT22;53049;43.446;3.698;2023-12-14T06:12:01;9.90;99.90
66257;DHT22;53049;43.446;3.698;2023-12-14T06:14:27;10.00;99.90
66257;DHT22;53049;43.446;3.698;2023-12-14T06:16:53;10.00;99.90
66257;DHT22;53049;43.446;3.698;2023-12-14T06:19:19;10.00;99.90
66257;DHT22;53049;43.446;3.698;2023-12-14T06:21:45;10.10;99.90
66257;DHT22;53049;43.446;3.698;2023-12-14T06:24:10;10.00;99.90
66257;DHT22;53049;43.446;3.698;2023-12-14T06:26:44;10.00;99.90
66257;DHT22;53049;43.446;3.698;2023-12-14T06:29:10;10.00;99.90
66257;DHT22;53049;43.446;3.698;2023-12-14T06:31:37;10.00;99.90
66257;DHT22;53049;43.446;3.698;2023-12-14T06:34:03;10.00;99.90
66257;DHT22;53049;43.446;3.698;2023-12-14T06:36:33;10.00;99.90
66257;DHT22;53049;43.446;3.698;2023-12-14T06:39:00;10.00;99.90
66257;DHT22;53049;43.446;3.698;2023-12-14T06:41:27;10.00;99.90
66257;DHT22;53049;43.446;3.698;2023-12-14T06:43:54;9.90;99.90
66257;DHT22;53049;43.446;3.698;2023-12-14T06:46:20;9.90;99.90
66257;DHT22;53049;43.446;3.698;2023-12-14T06:48:46;10.00;99.90
66257;DHT22;53049;43.446;3.698;2023-12-14T06:51:12;10.00;99.90
66257;DHT22;53049;43.446;3.698;2023-12-14T06:53:42;9.90;99.90
66257;DHT22;53049;43.446;3.698;2023-12-14T06:56:09;9.80;99.90
66257;DHT22;53049;43.446;3.698;2023-12-14T06:58:42;9.80;99.90
66257;DHT22;53049;43.446;3.698;2023-12-14T07:01:16;9.80;99.90
66257;DHT22;53049;43.446;3.698;2023-12-14T07:03:42;9.70;99.90
66257;DHT22;53049;43.446;3.698;2023-12-14T07:06:17;9.80;99.90
66257;DHT22;53049;43.446;3.698;2023-12-14T07:08:43;9.70;99.90
66257;DHT22;53049;43.446;3.698;2023-12-14T07:11:10;9.80;99.90
66257;DHT22;53049;43.446;3.698;2023-12-14T07:13:37;9.70;99.90
66257;DHT22;53049;43.446;3.698;2023-12-14T07:16:07;9.80;99.90
66257;DHT22;53049;43.446;3.698;2023-12-14T07:18:42;9.70;99.90
66257;DHT22;53049;43.446;3.698;2023-12-14T07:21:08;9.70;99.90
66257;DHT22;53049;43.446;3.698;2023-12-14T07:23:35;9.70;99.90
66257;DHT22;53049;43.446;3.698;2023-12-14T07:26:01;9.70;99.90
66257;DHT22;53049;43.446;3.698;2023-12-14T07:28:27;9.70;99.90
66257;DHT22;53049;43.446;3.698;2023-12-14T07:30:53;9.70;99.90
66257;DHT22;53049;43.446;3.698;2023-12-14T07:33:19;9.70;99.90
66257;DHT22;53049;43.446;3.698;2023-12-14T07:35:44;9.70;99.90
66257;DHT22;53049;43.446;3.698;2023-12-14T07:38:10;9.60;99.90
66257;DHT22;53049;43.446;3.698;2023-12-14T07:40:36;9.60;99.90
66257;DHT22;53049;43.446;3.698;2023-12-14T07:43:04;9.70;99.90
66257;DHT22;53049;43.446;3.698;2023-12-14T07:45:30;9.70;99.90
66257;DHT22;53049;43.446;3.698;2023-12-14T07:47:55;9.70;99.90
66257;DHT22;53049;43.446;3.698;2023-12-14T07:50:22;9.70;99.90
66257;DHT22;53049;43.446;3.698;2023-12-14T07:52:48;9.70;99.90
66257;DHT22;53049;43.446;3.698;2023-12-14T07:55:14;9.70;99.90
66257;DHT22;53049;43.446;3.698;2023-12-14T07:57:40;9.70;99.90
66257;DHT22;53049;43.446;3.698;2023-12-14T08:00:07;9.80;99.90
66257;DHT22;53049;43.446;3.698;2023-12-14T08:02:36;9.80;99.90
66257;DHT22;53049;43.446;3.698;2023-12-14T08:05:01;9.80;99.90
66257;DHT22;53049;43.446;3.698;2023-12-14T08:07:27;9.80;99.90
66257;DHT22;53049;43.446;3.698;2023-12-14T08:09:57;9.80;99.90
66257;DHT22;53049;43.446;3.698;2023-12-14T08:12:23;9.80;99.90
66257;DHT22;53049;43.446;3.698;2023-12-14T08:14:49;9.80;99.90
66257;DHT22;53049;43.446;3.698;2023-12-14T08:17:15;9.80;99.90
66257;DHT22;53049;43.446;3.698;2023-12-14T08:19:42;9.80;99.90
66257;DHT22;53049;43.446;3.698;2023-12-14T08:22:08;9.80;99.90
66257;DHT22;53049;43.446;3.698;2023-12-14T08:24:37;9.80;99.90
66257;DHT22;53049;43.446;3.698;2023-12-14T08:27:02;9.90;99.90
66257;DHT22;53049;43.446;3.698;2023-12-14T08:29:28;9.90;99.90
66257;DHT22;53049;43.446;3.698;2023-12-14T08:31:54;9.90;99.90
66257;DHT22;53049;43.446;3.698;2023-12-14T08:34:23;9.90;99.90
66257;DHT22;53049;43.446;3.698;2023-12-14T08:36:49;9.90;99.90
66257;DHT22;53049;43.446;3.698;2023-12-14T08:39:14;9.90;99.90
66257;DHT22;53049;43.446;3.698;2023-12-14T08:41:40;9.90;99.90
66257;DHT22;53049;43.446;3.698;2023-12-14T08:44:07;9.90;99.90
66257;DHT22;53049;43.446;3.698;2023-12-14T08:46:44;9.90;99.90
66257;DHT22;53049;43.446;3.698;2023-12-14T08:49:11;9.90;99.90
66257;DHT22;53049;43.446;3.698;2023-12-14T08:51:37;9.90;99.90
66257;DHT22;53049;43.446;3.698;2023-12-14T08:54:04;10.00;99.90
66257;DHT22;53049;43.446;3.698;2023-12-14T08:56:29;10.00;99.90
66257;DHT22;53049;43.446;3.698;2023-12-14T08:58:55;10.00;99.90
66257;DHT22;53049;43.446;3.698;2023-12-14T09:01:22;10.10;99.90
66257;DHT22;53049;43.446;3.698;2023-12-14T09:03:48;10.10;99.90
66257;DHT22;53049;43.446;3.698;2023-12-14T09:06:16;10.10;99.90
66257;DHT22;53049;43.446;3.698;2023-12-14T09:08:42;10.10;99.90
66257;DHT22;53049;43.446;3.698;2023-12-14T09:11:08;10.10;99.90
66257;DHT22;53049;43.446;3.698;2023-12-14T09:13:34;10.20;99.90
66257;DHT22;53049;43.446;3.698;2023-12-14T09:15:59;10.20;99.90
66257;DHT22;53049;43.446;3.698;2023-12-14T09:18:25;10.20;99.90
66257;DHT22;53049;43.446;3.698;2023-12-14T09:20:51;10.20;99.90
66257;DHT22;53049;43.446;3.698;2023-12-14T09:23:17;10.20;99.90
66257;DHT22;53049;43.446;3.698;2023-12-14T09:25:44;10.30;99.90
66257;DHT22;53049;43.446;3.698;2023-12-14T09:28:10;10.30;99.90
66257;DHT22;53049;43.446;3.698;2023-12-14T09:30:36;10.30;99.90
66257;DHT22;53049;43.446;3.698;2023-12-14T09:33:01;10.40;99.90
66257;DHT22;53049;43.446;3.698;2023-12-14T09:35:27;10.30;99.90
66257;DHT22;53049;43.446;3.698;2023-12-14T09:37:53;10.40;99.90
66257;DHT22;53049;43.446;3.698;2023-12-14T09:40:19;10.40;99.90
66257;DHT22;53049;43.446;3.698;2023-12-14T09:42:45;10.50;99.90
66257;DHT22;53049;43.446;3.698;2023-12-14T09:45:12;10.50;99.90
66257;DHT22;53049;43.446;3.698;2023-12-14T09:47:38;10.50;99.90
66257;DHT22;53049;43.446;3.698;2023-12-14T09:50:04;10.50;99.90
66257;DHT22;53049;43.446;3.698;2023-12-14T09:52:31;10.60;99.90
66257;DHT22;53049;43.446;3.698;2023-12-14T09:54:57;10.60;99.90
66257;DHT22;53049;43.446;3.698;2023-12-14T09:57:23;10.60;99.90
66257;DHT22;53049;43.446;3.698;2023-12-14T09:59:54;10.60;99.90
66257;DHT22;53049;43.446;3.698;2023-12-14T10:02:25;10.60;99.90
66257;DHT22;53049;43.446;3.698;2023-12-14T10:04:51;10.60;99.90
66257;DHT22;53049;43.446;3.698;2023-12-14T10:07:18;10.70;99.90
66257;DHT22;53049;43.446;3.698;2023-12-14T10:09:44;10.70;99.90
66257;DHT22;53049;43.446;3.698;2023-12-14T10:12:10;10.80;99.90
66257;DHT22;53049;43.446;3.698;2023-12-14T10:14:36;10.80;99.90
66257;DHT22;53049;43.446;3.698;2023-12-14T10:17:20;10.80;99.90
66257;DHT22;53049;43.446;3.698;2023-12-14T10:19:47;10.80;99.90
66257;DHT22;53049;43.446;3.698;2023-12-14T10:22:14;10.80;99.90
66257;DHT22;53049;43.446;3.698;2023-12-14T10:24:43;10.90;99.90
66257;DHT22;53049;43.446;3.698;2023-12-14T10:27:10;10.90;99.90
66257;DHT22;53049;43.446;3.698;2023-12-14T10:29:40;10.90;99.90
66257;DHT22;53049;43.446;3.698;2023-12-14T10:32:07;10.90;99.90
66257;DHT22;53049;43.446;3.698;2023-12-14T10:34:36;11.00;99.90
66257;DHT22;53049;43.446;3.698;2023-12-14T10:37:05;10.90;99.90
66257;DHT22;53049;43.446;3.698;2023-12-14T10:39:32;11.00;99.90
66257;DHT22;53049;43.446;3.698;2023-12-14T10:41:59;11.00;99.90
66257;DHT22;53049;43.446;3.698;2023-12-14T10:44:27;11.00;99.90
66257;DHT22;53049;43.446;3.698;2023-12-14T10:46:58;11.00;99.90
66257;DHT22;53049;43.446;3.698;2023-12-14T10:49:25;11.10;99.90
66257;DHT22;53049;43.446;3.698;2023-12-14T10:51:56;11.10;99.90
66257;DHT22;53049;43.446;3.698;2023-12-14T10:54:24;11.20;99.90
66257;DHT22;53049;43.446;3.698;2023-12-14T10:56:55;11.10;99.90
66257;DHT22;53049;43.446;3.698;2023-12-14T10:59:21;11.20;99.90
66257;DHT22;53049;43.446;3.698;2023-12-14T11:01:53;11.20;99.90
66257;DHT22;53049;43.446;3.698;2023-12-14T11:04:21;11.20;99.90
66257;DHT22;53049;43.446;3.698;2023-12-14T11:06:47;11.20;99.90
66257;DHT22;53049;43.446;3.698;2023-12-14T11:09:17;11.30;99.90
66257;DHT22;53049;43.446;3.698;2023-12-14T11:14:19;11.30;99.90
66257;DHT22;53049;43.446;3.698;2023-12-14T11:16:46;11.40;99.90
66257;DHT22;53049;43.446;3.698;2023-12-14T11:24:25;11.40;99.90
66257;DHT22;53049;43.446;3.698;2023-12-14T11:26:54;11.40;99.90
66257;DHT22;53049;43.446;3.698;2023-12-14T11:29:20;11.40;99.90
66257;DHT22;53049;43.446;3.698;2023-12-14T11:31:47;11.40;99.90
66257;DHT22;53049;43.446;3.698;2023-12-14T11:34:16;11.50;99.90
66257;DHT22;53049;43.446;3.698;2023-12-14T11:36:42;11.50;99.90
66257;DHT22;53049;43.446;3.698;2023-12-14T11:39:09;11.50;99.90
66257;DHT22;53049;43.446;3.698;2023-12-14T11:41:36;11.60;99.90
66257;DHT22;53049;43.446;3.698;2023-12-14T11:44:04;11.50;99.90
66257;DHT22;53049;43.446;3.698;2023-12-14T11:46:30;11.50;99.90
66257;DHT22;53049;43.446;3.698;2023-12-14T11:48:57;11.60;99.90
66257;DHT22;53049;43.446;3.698;2023-12-14T11:51:23;11.60;99.90
66257;DHT22;53049;43.446;3.698;2023-12-14T11:53:51;11.60;99.90
66257;DHT22;53049;43.446;3.698;2023-12-14T11:56:17;11.60;99.90
66257;DHT22;53049;43.446;3.698;2023-12-14T11:58:44;11.60;99.90
66257;DHT22;53049;43.446;3.698;2023-12-14T12:01:20;11.60;99.90
66257;DHT22;53049;43.446;3.698;2023-12-14T12:03:50;11.50;99.90
66257;DHT22;53049;43.446;3.698;2023-12-14T12:06:26;11.60;99.90
66257;DHT22;53049;43.446;3.698;2023-12-14T12:08:56;11.60;99.90
66257;DHT22;53049;43.446;3.698;2023-12-14T12:11:23;11.60;99.90
66257;DHT22;53049;43.446;3.698;2023-12-14T12:13:56;11.60;99.90
66257;DHT22;53049;43.446;3.698;2023-12-14T12:16:22;11.70;99.90
66257;DHT22;53049;43.446;3.698;2023-12-14T12:18:48;11.60;99.90
66257;DHT22;53049;43.446;3.698;2023-12-14T12:21:13;11.60;99.90
66257;DHT22;53049;43.446;3.698;2023-12-14T12:23:39;11.60;99.90
66257;DHT22;53049;43.446;3.698;2023-12-14T12:26:07;11.60;99.90
66257;DHT22;53049;43.446;3.698;2023-12-14T12:28:33;11.60;99.90
66257;DHT22;53049;43.446;3.698;2023-12-14T12:30:59;11.60;99.90
66257;DHT22;53049;43.446;3.698;2023-12-14T12:33:25;11.60;99.90
66257;DHT22;53049;43.446;3.698;2023-12-14T12:35:52;11.60;99.90
66257;DHT22;53049;43.446;3.698;2023-12-14T12:38:17;11.60;99.90
66257;DHT22;53049;43.446;3.698;2023-12-14T12:40:44;11.60;99.90
66257;DHT22;53049;43.446;3.698;2023-12-14T12:43:10;11.60;99.90
66257;DHT22;53049;43.446;3.698;2023-12-14T12:45:37;11.60;99.90
66257;DHT22;53049;43.446;3.698;2023-12-14T12:48:03;11.60;99.90
66257;DHT22;53049;43.446;3.698;2023-12-14T12:50:30;11.60;99.90
66257;DHT22;53049;43.446;3.698;2023-12-14T12:52:56;11.60;99.90
66257;DHT22;53049;43.446;3.698;2023-12-14T12:55:21;11.60;99.90
66257;DHT22;53049;43.446;3.698;2023-12-14T12:57:48;11.60;99.90
66257;DHT22;53049;43.446;3.698;2023-12-14T13:00:14;11.60;99.90
66257;DHT22;53049;43.446;3.698;2023-12-14T13:02:41;11.60;99.90
66257;DHT22;53049;43.446;3.698;2023-12-14T13:05:08;11.60;99.90
66257;DHT22;53049;43.446;3.698;2023-12-14T13:07:35;11.50;99.90
66257;DHT22;53049;43.446;3.698;2023-12-14T13:10:02;11.60;99.90
66257;DHT22;53049;43.446;3.698;2023-12-14T13:12:29;11.60;99.90
66257;DHT22;53049;43.446;3.698;2023-12-14T13:14:55;11.60;99.90
66257;DHT22;53049;43.446;3.698;2023-12-14T13:17:22;11.60;99.90
66257;DHT22;53049;43.446;3.698;2023-12-14T13:19:48;11.60;99.90
66257;DHT22;53049;43.446;3.698;2023-12-14T13:22:14;11.60;99.90
66257;DHT22;53049;43.446;3.698;2023-12-14T13:24:40;11.60;99.90
66257;DHT22;53049;43.446;3.698;2023-12-14T13:27:05;11.60;99.90
66257;DHT22;53049;43.446;3.698;2023-12-14T13:29:31;11.60;99.90
66257;DHT22;53049;43.446;3.698;2023-12-14T13:31:58;11.60;99.90
66257;DHT22;53049;43.446;3.698;2023-12-14T13:34:28;11.60;99.90
66257;DHT22;53049;43.446;3.698;2023-12-14T13:36:54;11.60;99.90
66257;DHT22;53049;43.446;3.698;2023-12-14T13:39:20;11.50;99.90
66257;DHT22;53049;43.446;3.698;2023-12-14T13:41:46;11.60;99.90
66257;DHT22;53049;43.446;3.698;2023-12-14T13:44:12;11.60;99.90
66257;DHT22;53049;43.446;3.698;2023-12-14T13:46:38;11.60;99.90
66257;DHT22;53049;43.446;3.698;2023-12-14T13:49:03;11.60;99.90
66257;DHT22;53049;43.446;3.698;2023-12-14T13:51:29;11.50;99.90
66257;DHT22;53049;43.446;3.698;2023-12-14T13:53:55;11.50;99.90
66257;DHT22;53049;43.446;3.698;2023-12-14T13:56:20;11.50;99.90
66257;DHT22;53049;43.446;3.698;2023-12-14T13:58:46;11.50;99.90
66257;DHT22;53049;43.446;3.698;2023-12-14T14:01:12;11.50;99.90
66257;DHT22;53049;43.446;3.698;2023-12-14T14:03:41;11.50;99.90
66257;DHT22;53049;43.446;3.698;2023-12-14T14:06:07;11.50;99.90
66257;DHT22;53049;43.446;3.698;2023-12-14T14:08:33;11.40;99.90
66257;DHT22;53049;43.446;3.698;2023-12-14T14:10:59;11.50;99.90
66257;DHT22;53049;43.446;3.698;2023-12-14T14:13:26;11.40;99.90
66257;DHT22;53049;43.446;3.698;2023-12-14T14:15:52;11.30;99.90
66257;DHT22;53049;43.446;3.698;2023-12-14T14:18:17;11.40;99.90
66257;DHT22;53049;43.446;3.698;2023-12-14T14:20:43;11.40;99.90
66257;DHT22;53049;43.446;3.698;2023-12-14T14:23:09;11.40;99.90
66257;DHT22;53049;43.446;3.698;2023-12-14T14:25:35;11.40;99.90
66257;DHT22;53049;43.446;3.698;2023-12-14T14:28:00;11.40;99.90
66257;DHT22;53049;43.446;3.698;2023-12-14T14:30:26;11.40;99.90
66257;DHT22;53049;43.446;3.698;2023-12-14T14:32:52;11.30;99.90
66257;DHT22;53049;43.446;3.698;2023-12-14T14:35:18;11.30;99.90
66257;DHT22;53049;43.446;3.698;2023-12-14T14:37:44;11.30;99.90
66257;DHT22;53049;43.446;3.698;2023-12-14T14:40:13;11.40;99.90
66257;DHT22;53049;43.446;3.698;2023-12-14T14:42:39;11.40;99.90
66257;DHT22;53049;43.446;3.698;2023-12-14T14:45:07;11.40;99.90
66257;DHT22;53049;43.446;3.698;2023-12-14T14:47:33;11.40;99.90
66257;DHT22;53049;43.446;3.698;2023-12-14T14:49:59;11.40;99.90
66257;DHT22;53049;43.446;3.698;2023-12-14T14:52:32;11.40;99.90
66257;DHT22;53049;43.446;3.698;2023-12-14T14:54:58;11.40;99.90
66257;DHT22;53049;43.446;3.698;2023-12-14T14:57:23;11.40;99.90
66257;DHT22;53049;43.446;3.698;2023-12-14T14:59:49;11.30;99.90
66257;DHT22;53049;43.446;3.698;2023-12-14T15:02:15;11.30;99.90
66257;DHT22;53049;43.446;3.698;2023-12-14T15:04:41;11.20;99.90
66257;DHT22;53049;43.446;3.698;2023-12-14T15:07:06;11.20;99.90
66257;DHT22;53049;43.446;3.698;2023-12-14T15:09:32;11.20;99.90
66257;DHT22;53049;43.446;3.698;2023-12-14T15:11:58;11.10;99.90
66257;DHT22;53049;43.446;3.698;2023-12-14T15:14:23;11.20;99.90
66257;DHT22;53049;43.446;3.698;2023-12-14T15:16:49;11.20;99.90
66257;DHT22;53049;43.446;3.698;2023-12-14T15:19:15;11.10;99.90
66257;DHT22;53049;43.446;3.698;2023-12-14T15:21:40;11.10;99.90
66257;DHT22;53049;43.446;3.698;2023-12-14T15:24:06;11.10;99.90
66257;DHT22;53049;43.446;3.698;2023-12-14T15:26:32;11.10;99.90
66257;DHT22;53049;43.446;3.698;2023-12-14T15:28:59;11.10;99.90
66257;DHT22;53049;43.446;3.698;2023-12-14T15:31:25;11.10;99.90
66257;DHT22;53049;43.446;3.698;2023-12-14T15:33:50;11.00;99.90
66257;DHT22;53049;43.446;3.698;2023-12-14T15:36:16;10.90;99.90
66257;DHT22;53049;43.446;3.698;2023-12-14T15:38:42;10.90;99.90